»·PEaware :: UAL1973 KSFO-KSAN

UAL1973 :: KSFO-KSAN

FLIGHT INFORMATION

Flight Status: Arrived
Operator:
United Airlines
More flights by this operator :: More flights under this callsign
Pilot: Josh T. (20631)
Aircraft: AIRBUS A320
(A320)
More flights by this aircraft type
Origin: KSFO San Francisco Intl
United States
Destination: KSAN San Diego Intl-Lindbergh
United States
More flights between these airports :: More routes between these airports
Route: OFFSH2 MCKEY LAX COMIX2
File this flight plan on PilotEdge
Remarks:
Altitude:
(Current/Filed)
37,000ft
Speed:
(Current/Filed)
452kts
Departed: 17-Feb-20 02:36 PM
Arrived: 17-Feb-20 03:43 PM
Distance/Time
Traveled:
388nm/1:07
Distance/Time
To Go:
Arrived

Flight Plot

Page will automatically refresh every two minutes.


Map Options




Map Legend


Flown Route
Filed Route
Departure Airport
Arrival Airport
Navaid (VOR, NDB)
Fix

Horizontal Profiles

Position Reports

Time Latitude Longitude Heading Altitude Ground
Speed
17-Feb-20 14:02 37.620808 -122.387675 207 27ft 0kts
17-Feb-20 14:03 37.620808 -122.387675 207 27ft 0kts
17-Feb-20 14:04 37.620808 -122.387675 207 27ft 0kts
17-Feb-20 14:05 37.620808 -122.387675 207 27ft 0kts
17-Feb-20 14:06 37.620808 -122.387675 207 27ft 0kts
17-Feb-20 14:07 37.620808 -122.387675 207 27ft 0kts
17-Feb-20 14:08 37.620808 -122.387675 207 27ft 0kts
17-Feb-20 14:09 37.620808 -122.387675 207 27ft 0kts
17-Feb-20 14:10 37.620808 -122.387675 207 27ft 0kts
17-Feb-20 14:11 37.620808 -122.387675 207 27ft 0kts
17-Feb-20 14:12 37.620808 -122.387675 207 27ft 0kts
17-Feb-20 14:13 37.620808 -122.387675 207 27ft 0kts
17-Feb-20 14:14 37.620808 -122.387675 207 27ft 0kts
17-Feb-20 14:15 37.620808 -122.387675 207 27ft 0kts
17-Feb-20 14:16 37.620808 -122.387675 207 27ft 0kts
17-Feb-20 14:17 37.620808 -122.387675 207 27ft 0kts
17-Feb-20 14:18 37.620808 -122.387675 207 27ft 0kts
17-Feb-20 14:19 37.620808 -122.387675 207 27ft 0kts
17-Feb-20 14:19 37.620808 -122.387675 207 27ft 0kts
17-Feb-20 14:21 37.620808 -122.387675 207 27ft 0kts
17-Feb-20 14:22 37.620808 -122.387675 207 27ft 0kts
17-Feb-20 14:22 37.620808 -122.387675 207 27ft 0kts
17-Feb-20 14:23 37.620808 -122.387675 207 27ft 0kts
17-Feb-20 14:25 37.620886 -122.387623 205 27ft 2kts
17-Feb-20 14:25 37.621537 -122.387436 175 27ft 2kts
17-Feb-20 14:26 37.622058 -122.387756 117 27ft 0kts
17-Feb-20 14:27 37.622057 -122.387755 117 27ft 0kts
17-Feb-20 14:28 37.622057 -122.387755 117 27ft 0kts
17-Feb-20 14:29 37.621609 -122.386671 117 27ft 13kts
17-Feb-20 14:30 37.619123 -122.380711 117 27ft 16kts
17-Feb-20 14:31 37.614797 -122.380847 207 27ft 20kts
17-Feb-20 14:32 37.609922 -122.384145 198 27ft 12kts
17-Feb-20 14:33 37.609349 -122.383280 119 27ft 2kts
17-Feb-20 14:34 37.609768 -122.381695 27 27ft 12kts
17-Feb-20 14:35 37.638483 -122.364484 4 941ft 153kts
17-Feb-20 14:36 37.687772 -122.363439 3 2406ft 214kts
17-Feb-20 14:37 37.732073 -122.414195 271 5174ft 272kts
17-Feb-20 14:38 37.678737 -122.485054 214 8294ft 302kts
17-Feb-20 14:39 37.609236 -122.549785 218 11019ft 326kts
17-Feb-20 14:40 37.530258 -122.622604 218 12780ft 367kts
17-Feb-20 14:41 37.443653 -122.693282 204 15285ft 380kts
17-Feb-20 14:42 37.339322 -122.710131 166 17502ft 403kts
17-Feb-20 14:43 37.230557 -122.667550 168 19431ft 415kts
17-Feb-20 14:44 37.118025 -122.628094 168 21197ft 427kts
17-Feb-20 14:45 37.002004 -122.586323 169 22817ft 438kts
17-Feb-20 14:46 36.882615 -122.551189 174 24291ft 444kts
17-Feb-20 14:47 36.760349 -122.519615 173 25709ft 452kts
17-Feb-20 14:48 36.636213 -122.487458 174 27028ft 458kts
17-Feb-20 14:49 36.510867 -122.455183 174 28261ft 464kts
17-Feb-20 14:50 36.391838 -122.391496 137 29396ft 494kts
17-Feb-20 14:51 36.303945 -122.258544 134 30632ft 496kts
17-Feb-20 14:52 36.214010 -122.129975 134 31953ft 493kts
17-Feb-20 14:53 36.125476 -122.000884 134 33170ft 490kts
17-Feb-20 14:54 36.036806 -121.873131 134 34248ft 488kts
17-Feb-20 14:55 35.948483 -121.746014 134 35163ft 489kts
17-Feb-20 14:56 35.859432 -121.618558 134 36016ft 488kts
17-Feb-20 14:57 35.770786 -121.491845 134 36725ft 489kts
17-Feb-20 14:58 35.681837 -121.365442 135 37137ft 488kts
17-Feb-20 14:59 35.592969 -121.239410 135 37110ft 488kts
17-Feb-20 15:00 35.503912 -121.113770 135 37084ft 488kts
17-Feb-20 15:01 35.423374 -120.978737 127 37073ft 492kts
17-Feb-20 15:02 35.345389 -120.840769 128 37043ft 492kts
17-Feb-20 15:03 35.267424 -120.703241 128 37059ft 492kts
17-Feb-20 15:04 35.189115 -120.566083 128 37061ft 492kts
17-Feb-20 15:05 35.110627 -120.428975 128 37038ft 492kts
17-Feb-20 15:06 35.032187 -120.292482 128 37066ft 491kts
17-Feb-20 15:07 34.953291 -120.155776 128 37051ft 491kts
17-Feb-20 15:08 34.874491 -120.019632 129 37035ft 491kts
17-Feb-20 15:09 34.795587 -119.883818 129 37018ft 491kts
17-Feb-20 15:10 34.716476 -119.748559 129 36966ft 492kts
17-Feb-20 15:11 34.637180 -119.613070 129 36997ft 491kts
17-Feb-20 15:12 34.557615 -119.477857 129 36995ft 492kts
17-Feb-20 15:13 34.478075 -119.342818 129 37004ft 492kts
17-Feb-20 15:14 34.398226 -119.208161 129 37000ft 492kts
17-Feb-20 15:15 34.318437 -119.074142 129 37038ft 491kts
17-Feb-20 15:16 34.238224 -118.939679 129 37014ft 492kts
17-Feb-20 15:17 34.157945 -118.805706 130 37009ft 492kts
17-Feb-20 15:18 34.077765 -118.672398 130 37023ft 491kts
17-Feb-20 15:19 33.997386 -118.539159 130 36766ft 487kts
17-Feb-20 15:20 33.914466 -118.408289 135 33591ft 493kts
17-Feb-20 15:21 33.821492 -118.288753 135 30946ft 486kts
17-Feb-20 15:22 33.731105 -118.170928 134 28500ft 472kts
17-Feb-20 15:23 33.644157 -118.056337 135 26157ft 456kts
17-Feb-20 15:24 33.559363 -117.945755 135 23869ft 446kts
17-Feb-20 15:25 33.472014 -117.843052 139 21658ft 435kts
17-Feb-20 15:26 33.384010 -117.745940 141 19466ft 424kts
17-Feb-20 15:27 33.376036 -117.737472 141 19262ft 424kts
17-Feb-20 15:29 33.165267 -117.513885 0 13971ft 0kts
17-Feb-20 15:30 33.045265 -117.407547 146 11989ft 345kts
17-Feb-20 15:31 32.971674 -117.345592 146 11505ft 302kts
17-Feb-20 15:32 32.902113 -117.287552 145 10345ft 317kts
17-Feb-20 15:33 32.831852 -117.229103 145 9244ft 300kts
17-Feb-20 15:34 32.796513 -117.146324 99 8144ft 285kts
17-Feb-20 15:35 32.776669 -117.057121 103 7162ft 266kts
17-Feb-20 15:36 32.756536 -116.975099 109 5694ft 261kts
17-Feb-20 15:37 32.696798 -116.958727 230 3581ft 256kts
17-Feb-20 15:38 32.693910 -117.028183 289 3129ft 197kts
17-Feb-20 15:39 32.708885 -117.088156 287 2514ft 182kts
17-Feb-20 15:40 32.721603 -117.140513 286 1000ft 139kts
17-Feb-20 15:41 32.731735 -117.182207 286 50ft 130kts
17-Feb-20 15:42 32.734970 -117.198751 253 29ft 13kts
17-Feb-20 15:43 32.733670 -117.199792 203 29ft 4kts
17-Feb-20 15:44 32.733471 -117.200560 262 29ft 0kts

Navigation Log

Ident Type
Flight plan parsing failed, navigation log unavailable